Time;durP1;ratioP1;P1;durP2;ratioP2;P2;SDS_P1;SDS_P2;PMS_P1;PMS_P2;Temp;Humidity;BMP_temperature;BMP_pressure;BME280_temperature;BME280_humidity;BME280_pressure;Samples;Min_cycle;Max_cycle;Signal;HPM_P1;HPM_P2
2023/07/26 00:00:01;;;;;;;7.95;3.67;;;28.50;51.40;;;;;;5070967;28;20040;-79
2023/07/26 00:02:26;;;;;;;9.88;4.05;;;28.40;51.40;;;;;;5066549;28;20083;-78
2023/07/26 00:04:52;;;;;;;7.63;3.22;;;28.60;51.40;;;;;;5068476;28;20127;-78
2023/07/26 00:07:18;;;;;;;9.27;3.17;;;28.60;51.40;;;;;;5047792;28;20043;-79
2023/07/26 00:09:44;;;;;;;8.85;3.50;;;28.60;51.40;;;;;;5044751;28;20116;-79
2023/07/26 00:12:10;;;;;;;7.57;3.38;;;28.50;51.40;;;;;;5030506;28;20139;-79
2023/07/26 00:14:36;;;;;;;6.88;3.22;;;28.40;51.40;;;;;;5055673;28;20041;-78
2023/07/26 00:17:02;;;;;;;6.43;3.40;;;28.60;51.40;;;;;;5070618;28;20040;-79
2023/07/26 00:19:28;;;;;;;11.40;3.50;;;28.50;51.40;;;;;;5072769;28;20116;-79
2023/07/26 00:21:54;;;;;;;12.27;3.38;;;28.70;51.40;;;;;;5052461;28;20049;-78
2023/07/26 00:24:20;;;;;;;10.95;3.72;;;28.50;51.40;;;;;;5033893;28;20493;-79
2023/07/26 00:26:46;;;;;;;11.98;3.72;;;28.70;51.40;;;;;;5033684;28;20053;-78
2023/07/26 00:29:12;;;;;;;6.75;3.75;;;28.60;51.40;;;;;;5053969;28;20049;-79
2023/07/26 00:31:38;;;;;;;6.43;3.50;;;28.70;51.40;;;;;;5052646;28;20120;-79
2023/07/26 00:34:04;;;;;;;8.23;3.30;;;28.60;51.40;;;;;;5064040;28;20143;-79
2023/07/26 00:36:30;;;;;;;16.25;4.38;;;28.60;51.30;;;;;;5058618;28;20033;-78
2023/07/26 00:38:56;;;;;;;6.75;3.90;;;28.70;51.40;;;;;;5033981;28;20041;-78
2023/07/26 00:41:22;;;;;;;9.20;3.72;;;28.70;51.40;;;;;;5045618;28;20052;-78
2023/07/26 00:43:48;;;;;;;8.65;3.70;;;28.60;51.40;;;;;;5073734;28;20059;-78
2023/07/26 00:46:14;;;;;;;11.32;3.65;;;28.70;51.40;;;;;;5073367;28;20072;-79
2023/07/26 00:48:41;;;;;;;10.07;3.08;;;28.60;51.40;;;;;;5072990;28;20083;-79
2023/07/26 00:51:07;;;;;;;4.93;3.05;;;28.60;51.40;;;;;;5065795;28;20063;-79
2023/07/26 00:53:34;;;;;;;6.93;3.50;;;28.70;51.40;;;;;;5053714;28;20029;-79
2023/07/26 00:56:00;;;;;;;8.85;3.75;;;28.70;51.40;;;;;;5052122;28;20068;-79
2023/07/26 00:58:26;;;;;;;5.90;2.72;;;28.80;51.40;;;;;;5065067;28;20556;-79
2023/07/26 01:00:53;;;;;;;8.30;3.20;;;28.70;51.40;;;;;;5067622;28;20391;-79
2023/07/26 01:03:20;;;;;;;5.07;3.38;;;28.80;51.30;;;;;;5072139;28;20025;-79
2023/07/26 01:06:01;;;;;;;13.50;3.17;;;28.60;51.40;;;;;;5062821;28;20625;-78
2023/07/26 01:08:48;;;;;;;13.38;3.10;;;28.80;51.30;;;;;;5071058;28;20036;-79
2023/07/26 01:11:27;;;;;;;10.95;3.50;;;28.80;51.40;;;;;;5055431;28;20044;-79
2023/07/26 01:14:07;;;;;;;15.05;3.90;;;28.70;51.40;;;;;;5072058;28;20044;-79
2023/07/26 01:16:34;;;;;;;7.18;3.17;;;28.80;51.30;;;;;;5071804;28;20077;-79
2023/07/26 01:19:00;;;;;;;7.47;3.72;;;28.70;51.40;;;;;;5073125;28;20102;-79
2023/07/26 01:21:30;;;;;;;9.68;4.07;;;28.60;51.40;;;;;;5044810;28;20057;-80
2023/07/26 01:23:57;;;;;;;10.20;3.42;;;28.80;51.30;;;;;;5034769;28;20029;-79
2023/07/26 01:26:22;;;;;;;13.55;3.65;;;28.70;51.30;;;;;;5013725;28;20142;-80
2023/07/26 01:28:48;;;;;;;5.60;3.15;;;28.80;51.30;;;;;;5047435;28;20033;-79
2023/07/26 01:31:16;;;;;;;15.35;3.92;;;28.80;51.30;;;;;;5030905;28;20041;-80
2023/07/26 01:33:44;;;;;;;8.90;3.70;;;28.80;51.40;;;;;;5030651;28;20091;-79
2023/07/26 01:36:11;;;;;;;6.03;3.50;;;28.70;51.40;;;;;;5036394;28;20110;-80
2023/07/26 01:38:38;;;;;;;12.07;3.38;;;28.80;51.40;;;;;;5050323;28;20029;-79
2023/07/26 01:41:05;;;;;;;7.43;3.53;;;28.80;51.40;;;;;;5052054;28;20520;-79
2023/07/26 01:43:32;;;;;;;6.40;3.45;;;28.70;51.40;;;;;;5048201;28;20564;-79
2023/07/26 01:45:58;;;;;;;9.02;3.67;;;28.70;51.40;;;;;;5053858;28;20041;-79
2023/07/26 01:48:24;;;;;;;8.07;3.45;;;28.60;51.50;;;;;;5050166;28;20482;-80
2023/07/26 01:50:50;;;;;;;12.07;4.45;;;28.70;51.50;;;;;;5064242;28;20384;-79
2023/07/26 01:53:18;;;;;;;7.97;3.40;;;28.70;51.50;;;;;;5071066;28;20148;-79
2023/07/26 01:55:46;;;;;;;8.90;3.72;;;28.50;51.60;;;;;;5038129;28;20136;-80
2023/07/26 01:58:13;;;;;;;9.77;3.72;;;28.50;51.60;;;;;;5022655;28;20072;-79
2023/07/26 02:00:39;;;;;;;8.88;3.50;;;28.60;51.60;;;;;;5034980;28;20065;-79
2023/07/26 02:03:05;;;;;;;6.97;3.58;;;28.60;51.60;;;;;;5068616;28;20024;-79
2023/07/26 02:05:31;;;;;;;11.60;3.63;;;28.50;51.50;;;;;;5041334;28;20029;-79
2023/07/26 02:07:57;;;;;;;11.55;4.05;;;28.60;51.60;;;;;;5049033;28;20747;-78
2023/07/26 02:10:23;;;;;;;6.63;3.45;;;28.50;51.60;;;;;;5016953;28;20045;-79
2023/07/26 02:12:49;;;;;;;6.13;3.80;;;28.70;51.60;;;;;;5049034;28;20052;-79
2023/07/26 02:15:16;;;;;;;12.00;3.58;;;28.60;51.60;;;;;;5032989;28;20056;-79
2023/07/26 02:17:42;;;;;;;12.02;3.70;;;28.60;51.60;;;;;;5049620;28;20571;-79
2023/07/26 02:20:09;;;;;;;9.10;3.78;;;28.60;51.60;;;;;;5051028;28;20028;-79
2023/07/26 02:22:35;;;;;;;11.10;3.95;;;28.60;51.70;;;;;;5048984;28;20051;-79
2023/07/26 02:25:02;;;;;;;11.50;4.40;;;28.60;51.70;;;;;;5032908;28;20032;-79
2023/07/26 02:27:28;;;;;;;11.63;4.25;;;28.70;51.70;;;;;;5038864;28;20064;-79
2023/07/26 02:29:54;;;;;;;11.23;4.07;;;28.60;51.70;;;;;;5052863;28;20076;-79
2023/07/26 02:32:20;;;;;;;7.78;3.95;;;28.50;51.70;;;;;;5052445;28;20385;-80
2023/07/26 02:34:46;;;;;;;12.15;4.00;;;28.60;51.70;;;;;;5033422;28;20040;-80
2023/07/26 02:37:13;;;;;;;11.10;3.92;;;28.70;51.70;;;;;;5049161;28;20040;-79
2023/07/26 02:39:39;;;;;;;11.13;4.28;;;28.80;51.70;;;;;;5034848;28;20052;-80
2023/07/26 02:42:05;;;;;;;8.40;3.42;;;28.60;51.70;;;;;;5076546;28;20058;-79
2023/07/26 02:44:33;;;;;;;9.73;3.92;;;28.60;51.80;;;;;;5060301;28;20144;-80
2023/07/26 02:47:00;;;;;;;11.93;4.05;;;28.70;51.70;;;;;;5031502;28;20092;-79
2023/07/26 02:49:26;;;;;;;5.45;3.90;;;28.70;51.70;;;;;;5046154;28;20132;-80
2023/07/26 02:51:52;;;;;;;10.40;4.93;;;28.70;51.80;;;;;;5046239;28;20166;-79
2023/07/26 02:54:18;;;;;;;9.98;3.97;;;28.60;51.80;;;;;;5071773;28;20120;-79
2023/07/26 02:56:44;;;;;;;10.85;4.10;;;28.50;51.80;;;;;;5071533;28;20051;-80
2023/07/26 02:59:10;;;;;;;13.75;4.22;;;28.60;51.90;;;;;;5030654;28;20034;-79
2023/07/26 03:01:36;;;;;;;15.18;4.43;;;28.50;51.90;;;;;;5050671;28;20040;-79
2023/07/26 03:04:02;;;;;;;9.23;3.38;;;28.50;51.90;;;;;;5067249;28;20025;-79
2023/07/26 03:06:29;;;;;;;7.25;4.07;;;28.40;51.90;;;;;;5029460;28;20060;-79
2023/07/26 03:08:55;;;;;;;12.52;4.32;;;28.50;51.90;;;;;;5031382;28;20493;-79
2023/07/26 03:11:20;;;;;;;11.60;3.42;;;28.60;52.00;;;;;;5028615;28;20072;-79
2023/07/26 03:13:47;;;;;;;11.93;4.70;;;28.50;52.00;;;;;;5012520;28;20041;-79
2023/07/26 03:16:16;;;;;;;11.32;3.70;;;28.40;52.00;;;;;;5028980;28;20388;-79
2023/07/26 03:18:43;;;;;;;13.07;4.45;;;28.50;51.90;;;;;;5012181;28;20033;-79
2023/07/26 03:21:09;;;;;;;13.07;4.57;;;28.50;52.00;;;;;;5029288;28;20485;-79
2023/07/26 03:23:35;;;;;;;14.93;4.63;;;28.40;51.90;;;;;;5011756;28;20592;-78
2023/07/26 03:26:01;;;;;;;12.57;3.67;;;28.50;52.00;;;;;;5029086;28;20135;-79
2023/07/26 03:28:27;;;;;;;15.90;3.88;;;28.60;51.90;;;;;;5033445;28;20044;-79
2023/07/26 03:30:53;;;;;;;10.60;4.32;;;28.40;52.00;;;;;;5048440;28;20477;-79
2023/07/26 03:33:19;;;;;;;11.60;4.22;;;28.50;52.00;;;;;;5048250;28;20068;-79
2023/07/26 03:35:45;;;;;;;7.07;4.30;;;28.30;52.00;;;;;;5037030;28;20037;-79
2023/07/26 03:38:12;;;;;;;13.10;4.43;;;28.40;52.10;;;;;;5027521;28;20493;-79
2023/07/26 03:40:40;;;;;;;9.20;4.15;;;28.40;52.10;;;;;;5014560;28;20449;-79
2023/07/26 03:43:08;;;;;;;9.70;3.70;;;28.50;52.00;;;;;;5030007;28;20528;-79
2023/07/26 03:45:34;;;;;;;11.23;3.75;;;28.50;52.00;;;;;;5030574;28;20060;-80
2023/07/26 03:48:00;;;;;;;8.80;4.45;;;28.40;52.00;;;;;;5029112;28;20052;-79
2023/07/26 03:50:26;;;;;;;7.78;4.65;;;28.60;52.00;;;;;;5033549;28;20108;-79
2023/07/26 03:52:52;;;;;;;13.57;4.47;;;28.50;52.00;;;;;;5042456;28;20112;-79
2023/07/26 03:55:18;;;;;;;12.40;3.75;;;28.50;52.00;;;;;;5033754;28;20506;-79
2023/07/26 03:57:44;;;;;;;8.30;3.63;;;28.40;52.00;;;;;;5034828;28;20030;-79
2023/07/26 04:00:12;;;;;;;7.43;4.35;;;28.70;52.00;;;;;;5033026;28;20112;-78
2023/07/26 04:02:38;;;;;;;11.80;3.67;;;28.50;52.00;;;;;;5052233;28;20036;-79
2023/07/26 04:05:04;;;;;;;8.85;4.05;;;28.50;52.00;;;;;;5032649;28;20087;-79
2023/07/26 04:07:30;;;;;;;8.20;4.57;;;28.50;52.10;;;;;;5033969;28;20335;-79
2023/07/26 04:09:58;;;;;;;12.48;4.43;;;28.40;52.00;;;;;;5036500;28;20045;-79
2023/07/26 04:12:25;;;;;;;10.60;5.07;;;28.50;52.10;;;;;;5052452;28;20032;-78
2023/07/26 04:14:51;;;;;;;13.63;5.10;;;28.40;52.00;;;;;;5035286;28;20095;-80
2023/07/26 04:17:17;;;;;;;10.75;4.13;;;28.40;52.00;;;;;;5034223;28;20067;-79
2023/07/26 04:19:43;;;;;;;9.90;4.93;;;28.50;52.10;;;;;;5063294;28;20504;-80
2023/07/26 04:22:09;;;;;;;11.35;4.53;;;28.60;52.10;;;;;;5046536;28;20497;-80
2023/07/26 04:24:40;;;;;;;12.20;5.03;;;28.50;52.00;;;;;;5054107;28;20036;-79
2023/07/26 04:27:06;;;;;;;11.98;5.95;;;28.40;52.10;;;;;;5053797;28;20025;-79
2023/07/26 04:29:32;;;;;;;11.00;4.40;;;28.40;52.10;;;;;;5051699;28;20028;-79
2023/07/26 04:31:58;;;;;;;14.07;4.95;;;28.50;52.00;;;;;;5054002;28;20037;-79
2023/07/26 04:34:25;;;;;;;13.20;5.18;;;28.50;52.00;;;;;;5046223;28;20059;-79
2023/07/26 04:36:51;;;;;;;10.05;4.78;;;28.50;52.10;;;;;;5040714;28;20029;-79
2023/07/26 04:39:17;;;;;;;13.80;5.20;;;28.50;52.10;;;;;;5016647;28;20440;-79
2023/07/26 04:41:43;;;;;;;11.25;4.22;;;28.50;52.10;;;;;;5050590;28;20036;-79
2023/07/26 04:44:09;;;;;;;19.58;5.28;;;28.50;52.10;;;;;;5073631;28;20060;-79
2023/07/26 04:46:35;;;;;;;19.08;5.05;;;28.50;52.20;;;;;;5073714;28;20049;-79
2023/07/26 04:49:01;;;;;;;11.88;4.65;;;28.60;52.20;;;;;;5059245;28;20021;-79
2023/07/26 04:51:27;;;;;;;8.40;4.75;;;28.50;52.20;;;;;;5048628;28;20033;-78
2023/07/26 04:53:53;;;;;;;13.10;5.93;;;28.50;52.20;;;;;;5053695;28;20029;-79
2023/07/26 04:56:19;;;;;;;14.93;5.47;;;28.50;52.20;;;;;;5056716;28;20043;-79
2023/07/26 04:58:46;;;;;;;18.73;5.05;;;28.60;52.10;;;;;;5066634;28;20025;-79
2023/07/26 05:01:12;;;;;;;8.75;5.15;;;28.50;52.20;;;;;;5069465;28;20060;-79
2023/07/26 05:03:38;;;;;;;10.70;5.68;;;28.60;52.20;;;;;;5070450;28;20122;-79
2023/07/26 05:06:04;;;;;;;16.17;5.80;;;28.60;52.20;;;;;;5044810;28;20172;-79
2023/07/26 05:08:30;;;;;;;16.05;5.53;;;28.40;52.20;;;;;;5062206;28;20064;-79
2023/07/26 05:10:56;;;;;;;13.10;5.65;;;28.40;52.30;;;;;;5030726;28;20452;-79
2023/07/26 05:13:23;;;;;;;15.02;6.20;;;28.40;52.60;;;;;;5044266;28;20040;-79
2023/07/26 05:15:49;;;;;;;11.00;4.82;;;28.40;53.00;;;;;;5066514;28;20539;-79
2023/07/26 05:18:15;;;;;;;10.23;4.95;;;28.40;52.60;;;;;;5053997;28;20094;-78
2023/07/26 05:20:44;;;;;;;14.95;5.43;;;28.50;52.60;;;;;;5054491;28;20520;-79
2023/07/26 05:23:10;;;;;;;11.50;5.07;;;28.30;52.70;;;;;;5070365;28;20048;-79
2023/07/26 05:25:39;;;;;;;8.82;5.07;;;28.40;52.30;;;;;;5070521;28;20072;-79
2023/07/26 05:28:05;;;;;;;12.23;5.18;;;28.40;52.30;;;;;;5053375;28;20028;-79
2023/07/26 05:30:31;;;;;;;12.13;5.10;;;28.50;52.30;;;;;;5070187;28;20044;-79
2023/07/26 05:32:57;;;;;;;10.73;4.82;;;28.60;52.30;;;;;;5070058;28;20446;-79
2023/07/26 05:35:23;;;;;;;13.13;6.18;;;28.50;52.30;;;;;;5060099;28;20126;-79
2023/07/26 05:37:50;;;;;;;9.20;4.70;;;28.40;52.30;;;;;;5072352;28;20373;-79
2023/07/26 05:40:16;;;;;;;13.18;5.05;;;28.40;52.30;;;;;;5069426;28;20123;-79
2023/07/26 05:42:42;;;;;;;12.85;5.22;;;28.50;52.30;;;;;;5062391;28;20744;-79
2023/07/26 05:45:08;;;;;;;14.00;5.38;;;28.50;52.30;;;;;;5067678;28;20044;-79
2023/07/26 05:47:38;;;;;;;10.02;5.05;;;28.50;52.40;;;;;;5072479;28;20032;-78
2023/07/26 05:50:06;;;;;;;11.35;5.57;;;28.50;52.40;;;;;;5057680;28;20114;-79
2023/07/26 05:52:32;;;;;;;8.10;4.72;;;28.50;52.40;;;;;;5035768;28;20041;-79
2023/07/26 05:54:58;;;;;;;13.60;3.58;;;28.50;52.30;;;;;;5038018;28;20476;-79
2023/07/26 05:57:24;;;;;;;15.80;4.80;;;28.40;52.40;;;;;;5064255;28;20033;-79
2023/07/26 05:59:50;;;;;;;12.70;5.10;;;28.50;52.40;;;;;;5033304;28;20462;-80
2023/07/26 06:02:16;;;;;;;3.45;1.55;;;28.50;52.40;;;;;;5030799;28;20080;-78
2023/07/26 06:04:43;;;;;;;3.20;1.80;;;28.50;52.90;;;;;;5044661;28;20029;-76
2023/07/26 06:07:09;;;;;;;3.47;1.88;;;28.40;53.40;;;;;;5042948;28;20033;-79
2023/07/26 06:09:35;;;;;;;2.15;1.77;;;28.40;52.80;;;;;;5038224;28;20037;-79
2023/07/26 06:12:01;;;;;;;7.60;2.35;;;28.60;53.70;;;;;;5041257;28;20052;-79
2023/07/26 06:14:28;;;;;;;5.32;2.65;;;28.40;54.30;;;;;;5033441;28;20060;-78
2023/07/26 06:16:54;;;;;;;6.88;4.18;;;28.60;54.10;;;;;;5032535;28;20036;-77
2023/07/26 06:19:21;;;;;;;17.85;7.05;;;28.70;56.10;;;;;;5010115;28;21047;-78
2023/07/26 06:21:47;;;;;;;13.43;8.15;;;28.70;54.70;;;;;;5001813;28;20050;-77
2023/07/26 06:24:13;;;;;;;15.90;9.13;;;28.60;54.40;;;;;;5000411;28;20073;-77
2023/07/26 06:26:39;;;;;;;14.15;7.55;;;28.60;54.80;;;;;;5009187;28;20046;-77
2023/07/26 06:29:05;;;;;;;10.00;4.45;;;28.80;54.90;;;;;;5007330;28;20421;-78
2023/07/26 06:31:31;;;;;;;9.30;4.35;;;28.70;57.30;;;;;;4998870;28;20100;-79
2023/07/26 06:33:57;;;;;;;8.05;4.07;;;28.70;54.60;;;;;;5002295;28;20042;-77
2023/07/26 06:36:23;;;;;;;13.13;4.75;;;28.80;54.10;;;;;;5009219;28;20050;-77
2023/07/26 06:38:49;;;;;;;6.60;4.43;;;28.60;53.80;;;;;;5009146;28;20049;-77
2023/07/26 06:41:15;;;;;;;14.27;5.28;;;28.70;53.60;;;;;;5009014;28;20394;-77
2023/07/26 06:43:41;;;;;;;7.10;4.55;;;28.70;53.50;;;;;;5009645;28;20042;-77
2023/07/26 06:46:08;;;;;;;10.43;3.83;;;28.70;53.40;;;;;;5008909;28;20068;-77
2023/07/26 06:48:34;;;;;;;8.70;4.10;;;28.70;53.20;;;;;;4989227;28;20042;-77
2023/07/26 06:51:03;;;;;;;11.10;4.32;;;28.80;53.10;;;;;;4979034;28;20046;-85
2023/07/26 06:53:30;;;;;;;5.63;3.30;;;28.80;52.80;;;;;;4978239;28;20042;-85
2023/07/26 06:56:00;;;;;;;10.45;3.45;;;28.80;52.90;;;;;;5014105;28;20052;-85
2023/07/26 06:58:26;;;;;;;12.32;4.45;;;28.80;52.90;;;;;;5030453;28;20053;-87
2023/07/26 07:00:54;;;;;;;7.80;4.22;;;28.80;53.00;;;;;;4996641;28;20057;-75
2023/07/26 07:03:20;;;;;;;9.25;4.25;;;28.80;53.10;;;;;;5028593;28;20033;-73
2023/07/26 07:05:46;;;;;;;8.68;4.13;;;29.00;53.70;;;;;;5018174;28;20038;-74
2023/07/26 07:08:12;;;;;;;9.27;4.65;;;28.70;53.40;;;;;;5009724;28;20038;-74
2023/07/26 07:10:38;;;;;;;4.20;2.97;;;28.80;53.40;;;;;;5009509;28;20045;-73
2023/07/26 07:13:05;;;;;;;10.45;4.38;;;28.70;53.60;;;;;;5013339;28;20054;-73
2023/07/26 07:15:30;;;;;;;9.25;4.68;;;28.70;55.40;;;;;;5029822;28;20037;-73
2023/07/26 07:17:56;;;;;;;8.75;5.28;;;28.80;57.20;;;;;;5031576;28;20377;-74
2023/07/26 07:20:22;;;;;;;9.93;5.28;;;28.60;55.80;;;;;;5030057;28;20041;-74
2023/07/26 07:22:52;;;;;;;12.30;4.55;;;28.60;55.50;;;;;;5031378;28;20050;-74
2023/07/26 07:25:18;;;;;;;8.68;4.90;;;28.70;54.70;;;;;;5030981;28;20034;-74
2023/07/26 07:27:44;;;;;;;12.18;5.05;;;28.70;54.40;;;;;;5035917;28;20040;-74
2023/07/26 07:30:10;;;;;;;7.30;4.75;;;28.70;54.40;;;;;;5033876;28;20377;-75
2023/07/26 07:32:37;;;;;;;6.45;4.00;;;28.70;54.30;;;;;;5034779;28;20465;-81
2023/07/26 07:35:07;;;;;;;6.95;5.07;;;28.80;54.30;;;;;;5054851;28;20408;-79
2023/07/26 07:37:34;;;;;;;8.02;5.60;;;28.80;53.90;;;;;;5055135;28;20041;-79
2023/07/26 07:40:03;;;;;;;8.25;6.38;;;28.70;53.90;;;;;;5067855;28;20181;-79
2023/07/26 07:42:31;;;;;;;18.27;5.50;;;28.80;54.10;;;;;;5074989;28;20033;-79
2023/07/26 07:44:57;;;;;;;8.57;5.05;;;28.80;54.20;;;;;;5074649;28;20113;-80
2023/07/26 07:47:24;;;;;;;10.82;5.35;;;28.80;54.20;;;;;;5071246;28;20099;-81
2023/07/26 07:49:50;;;;;;;9.48;5.38;;;28.80;54.00;;;;;;5038282;28;20030;-81
2023/07/26 07:52:15;;;;;;;14.60;8.50;;;28.70;54.20;;;;;;5034906;28;20052;-80
2023/07/26 07:54:41;;;;;;;9.63;6.85;;;28.80;54.20;;;;;;5052149;28;20485;-80
2023/07/26 07:57:08;;;;;;;10.18;6.80;;;28.80;54.20;;;;;;5052310;28;20045;-79
2023/07/26 07:59:33;;;;;;;14.93;6.68;;;28.80;54.40;;;;;;5051814;28;20445;-79
2023/07/26 08:01:59;;;;;;;14.52;6.30;;;28.80;54.80;;;;;;5063816;28;20037;-79
2023/07/26 08:04:25;;;;;;;16.38;8.98;;;28.90;54.80;;;;;;5051858;28;20075;-77
2023/07/26 08:06:51;;;;;;;15.40;7.40;;;28.90;54.90;;;;;;5052179;28;20041;-80
2023/07/26 08:09:17;;;;;;;59.22;32.40;;;28.70;54.90;;;;;;5012024;28;20041;-79
2023/07/26 08:11:43;;;;;;;19.13;12.07;;;28.90;55.10;;;;;;5012736;28;20050;-77
2023/07/26 08:14:09;;;;;;;10.38;6.05;;;28.90;55.20;;;;;;5028387;28;20149;-77
2023/07/26 08:16:35;;;;;;;9.10;6.00;;;28.90;64.20;;;;;;4995035;28;20053;-77
2023/07/26 08:19:03;;;;;;;9.93;6.63;;;29.00;60.60;;;;;;5043419;28;20041;-77
2023/07/26 08:21:29;;;;;;;8.65;6.07;;;28.90;58.70;;;;;;5031389;28;20046;-77
2023/07/26 08:23:55;;;;;;;10.93;5.93;;;28.90;58.40;;;;;;5031561;28;20056;-80
2023/07/26 08:26:21;;;;;;;8.98;5.10;;;29.00;60.20;;;;;;5028852;28;20079;-78
2023/07/26 08:28:48;;;;;;;8.55;5.47;;;28.80;59.20;;;;;;5036739;28;20124;-79
2023/07/26 08:31:14;;;;;;;9.60;5.57;;;29.00;59.20;;;;;;5024514;28;20582;-79
2023/07/26 08:33:40;;;;;;;7.70;4.65;;;29.00;58.60;;;;;;5018043;28;20042;-81
2023/07/26 08:36:06;;;;;;;12.20;6.53;;;28.90;57.30;;;;;;5029422;28;20086;-84
2023/07/26 08:38:33;;;;;;;13.63;5.10;;;28.90;57.00;;;;;;5026376;28;20480;-83
2023/07/26 08:41:00;;;;;;;8.35;5.32;;;29.00;57.50;;;;;;5059826;28;20045;-75
2023/07/26 08:43:32;;;;;;;8.93;5.07;;;29.00;57.20;;;;;;5065830;28;20037;-81
2023/07/26 08:46:01;;;;;;;7.60;5.05;;;28.90;57.40;;;;;;5041019;28;20061;-81
2023/07/26 08:48:27;;;;;;;9.73;4.65;;;28.90;57.70;;;;;;5055043;28;20044;-83
2023/07/26 08:50:54;;;;;;;7.95;5.43;;;28.90;57.90;;;;;;5063435;28;20043;-82
2023/07/26 08:53:21;;;;;;;11.02;5.47;;;29.00;58.30;;;;;;5054981;28;20025;-82
2023/07/26 08:55:48;;;;;;;8.40;5.22;;;29.00;58.20;;;;;;5043194;28;20038;-84
2023/07/26 08:58:14;;;;;;;11.38;5.47;;;28.90;57.50;;;;;;5054683;28;20037;-86
2023/07/26 09:00:40;;;;;;;6.60;4.70;;;28.80;58.00;;;;;;5063771;28;20024;-86
2023/07/26 09:03:10;;;;;;;5.97;3.85;;;28.80;60.10;;;;;;5052216;28;20152;-77
2023/07/26 09:05:37;;;;;;;9.50;4.38;;;28.90;59.20;;;;;;5046534;28;20032;-78
2023/07/26 09:08:03;;;;;;;8.43;5.55;;;28.80;58.00;;;;;;5040501;28;20032;-77
2023/07/26 09:10:31;;;;;;;8.80;5.55;;;28.80;57.20;;;;;;5046626;28;20032;-76
2023/07/26 09:13:15;;;;;;;11.82;5.53;;;28.90;56.80;;;;;;5037987;28;20400;-76
2023/07/26 09:15:42;;;;;;;7.30;4.53;;;29.00;57.00;;;;;;5071675;28;20020;-77
2023/07/26 09:18:09;;;;;;;6.80;5.13;;;28.90;55.90;;;;;;5057394;28;20111;-77
2023/07/26 09:20:36;;;;;;;9.68;4.57;;;28.90;55.20;;;;;;5040431;28;20082;-76
2023/07/26 09:23:05;;;;;;;5.53;4.50;;;29.00;55.10;;;;;;5069662;28;20069;-76
2023/07/26 09:25:33;;;;;;;10.63;5.45;;;29.00;54.40;;;;;;5038049;28;20051;-77
2023/07/26 09:27:59;;;;;;;10.63;4.28;;;28.90;53.20;;;;;;5035523;28;20026;-77
2023/07/26 09:30:25;;;;;;;5.60;3.90;;;28.90;52.60;;;;;;5036502;28;20028;-77
2023/07/26 09:32:56;;;;;;;5.70;4.32;;;29.10;52.60;;;;;;5067015;28;20186;-76
2023/07/26 09:35:22;;;;;;;4.10;3.70;;;28.90;51.50;;;;;;5049494;28;20076;-76
2023/07/26 09:37:49;;;;;;;4.53;4.00;;;28.80;51.00;;;;;;5072449;28;20448;-76
2023/07/26 09:40:15;;;;;;;4.45;3.78;;;28.80;50.40;;;;;;5040490;28;20041;-77
2023/07/26 09:42:46;;;;;;;6.50;4.35;;;29.00;50.60;;;;;;5036816;28;20052;-76
2023/07/26 09:45:19;;;;;;;5.30;3.83;;;29.00;50.20;;;;;;5050820;28;20057;-76
2023/07/26 09:47:47;;;;;;;8.02;4.20;;;28.90;49.10;;;;;;5072217;28;20054;-76
2023/07/26 09:50:29;;;;;;;6.00;3.95;;;28.90;48.70;;;;;;5039729;28;20477;-76
2023/07/26 09:52:56;;;;;;;5.95;4.25;;;28.80;48.40;;;;;;5065574;28;20044;-76
2023/07/26 09:55:26;;;;;;;7.35;3.50;;;28.80;47.90;;;;;;5070617;28;20052;-76
2023/07/26 09:57:56;;;;;;;8.27;4.80;;;28.70;47.50;;;;;;5070401;28;20033;-77
2023/07/26 10:00:24;;;;;;;8.43;4.32;;;28.80;47.20;;;;;;5066944;28;20039;-76
2023/07/26 10:02:55;;;;;;;6.65;4.68;;;28.80;46.80;;;;;;5038706;28;20079;-75
2023/07/26 10:05:23;;;;;;;6.10;4.03;;;28.80;46.40;;;;;;5030874;28;20574;-76
2023/07/26 10:07:50;;;;;;;4.65;3.58;;;28.80;46.30;;;;;;5063399;28;20543;-76
2023/07/26 10:10:17;;;;;;;8.27;3.75;;;29.00;46.50;;;;;;5066424;28;20353;-76
2023/07/26 10:12:45;;;;;;;7.22;3.72;;;28.80;45.70;;;;;;5050982;28;20165;-76
2023/07/26 10:15:13;;;;;;;10.07;3.97;;;28.80;45.40;;;;;;5080523;28;20043;-76
2023/07/26 10:17:42;;;;;;;7.15;3.45;;;28.80;45.10;;;;;;5089102;28;20105;-75
2023/07/26 10:20:09;;;;;;;5.30;3.78;;;28.70;44.90;;;;;;5056036;28;20040;-76
2023/07/26 10:22:38;;;;;;;4.72;3.53;;;28.70;44.60;;;;;;5037849;28;20083;-76
2023/07/26 10:25:05;;;;;;;6.07;3.88;;;28.60;44.30;;;;;;5049276;28;20053;-76
2023/07/26 10:27:32;;;;;;;6.82;3.72;;;28.80;44.10;;;;;;5088790;28;20039;-76
2023/07/26 10:29:58;;;;;;;6.03;3.50;;;28.60;44.30;;;;;;5065756;28;20048;-76
2023/07/26 10:32:24;;;;;;;5.93;4.13;;;28.80;44.10;;;;;;5084973;28;20036;-76
2023/07/26 10:34:54;;;;;;;3.85;3.10;;;28.60;44.00;;;;;;5058864;28;20041;-81
2023/07/26 10:37:20;;;;;;;4.50;3.58;;;28.70;43.50;;;;;;5083126;28;20036;-80
2023/07/26 10:39:48;;;;;;;7.78;4.25;;;28.60;43.30;;;;;;5088934;28;20075;-81
2023/07/26 10:42:24;;;;;;;11.98;4.82;;;28.50;48.00;;;;;;5086913;28;20489;-79
2023/07/26 10:44:53;;;;;;;7.68;4.40;;;28.60;49.00;;;;;;5077890;28;20060;-78
2023/07/26 10:47:19;;;;;;;5.72;3.55;;;28.60;48.00;;;;;;5063760;28;20056;-80
2023/07/26 10:49:49;;;;;;;3.85;3.30;;;28.60;52.80;;;;;;5053615;28;20079;-78
2023/07/26 10:52:15;;;;;;;7.05;3.70;;;28.70;53.60;;;;;;5066115;28;20816;-79
2023/07/26 10:54:43;;;;;;;7.28;5.15;;;28.70;52.80;;;;;;5050316;28;20030;-80
2023/07/26 10:57:45;;;;;;;6.25;4.00;;;28.80;53.40;;;;;;5069866;28;20111;-77
2023/07/26 11:00:16;;;;;;;6.30;4.60;;;28.90;53.10;;;;;;5040110;28;20036;-77
2023/07/26 11:02:50;;;;;;;10.20;4.87;;;28.90;53.00;;;;;;5008379;28;20054;-76
2023/07/26 11:05:21;;;;;;;5.22;4.20;;;28.80;53.30;;;;;;5018350;28;20951;-77
2023/07/26 11:07:53;;;;;;;7.57;4.72;;;28.90;58.70;;;;;;5044384;28;20045;-76
2023/07/26 11:10:31;;;;;;;7.20;4.72;;;29.00;59.50;;;;;;5026956;28;20509;-77
2023/07/26 11:13:04;;;;;;;8.27;3.75;;;29.10;59.30;;;;;;5021627;28;20121;-76
2023/07/26 11:15:31;;;;;;;7.90;4.78;;;29.20;57.90;;;;;;5025038;28;20052;-76
2023/07/26 11:17:57;;;;;;;7.70;4.65;;;29.20;55.60;;;;;;5041483;28;20037;-76
2023/07/26 11:20:24;;;;;;;6.32;4.40;;;29.30;54.60;;;;;;5027300;28;20176;-77
2023/07/26 11:22:50;;;;;;;8.13;5.32;;;29.30;53.10;;;;;;5028676;28;20034;-77
2023/07/26 11:25:16;;;;;;;11.10;4.28;;;29.30;52.50;;;;;;5012087;28;20067;-76
2023/07/26 11:27:43;;;;;;;5.85;3.92;;;29.30;52.10;;;;;;5028374;28;20052;-77
2023/07/26 11:30:17;;;;;;;7.63;4.53;;;29.50;51.60;;;;;;5028139;28;20033;-78
2023/07/26 11:32:47;;;;;;;6.90;4.63;;;29.50;51.10;;;;;;5026734;28;20457;-75
2023/07/26 11:35:16;;;;;;;5.57;3.95;;;29.60;50.60;;;;;;5035862;28;20056;-78
2023/07/26 11:37:56;;;;;;;6.45;3.67;;;29.50;49.40;;;;;;5043837;28;20445;-78
2023/07/26 11:40:22;;;;;;;7.13;3.90;;;29.50;48.70;;;;;;5025674;28;20137;-79
2023/07/26 11:42:52;;;;;;;5.13;3.20;;;29.60;48.00;;;;;;5030762;28;20112;-79
2023/07/26 11:45:18;;;;;;;5.90;3.30;;;29.50;47.00;;;;;;5030678;28;20409;-78
2023/07/26 11:47:45;;;;;;;4.60;3.60;;;29.50;47.00;;;;;;5029809;28;20042;-79
2023/07/26 11:50:18;;;;;;;4.80;3.50;;;29.50;46.60;;;;;;5049439;28;20041;-80
2023/07/26 11:52:44;;;;;;;3.25;2.95;;;29.60;46.40;;;;;;5048190;28;20039;-80
2023/07/26 11:55:10;;;;;;;6.68;4.18;;;29.50;46.20;;;;;;5050910;28;20149;-78
2023/07/26 11:57:36;;;;;;;6.05;3.75;;;29.50;45.90;;;;;;5048697;28;20041;-78
2023/07/26 12:00:04;;;;;;;4.78;3.53;;;29.50;45.70;;;;;;5050931;28;20064;-78
2023/07/26 12:02:38;;;;;;;5.38;3.08;;;29.50;45.30;;;;;;5050761;28;20036;-77
2023/07/26 12:05:25;;;;;;;3.72;2.92;;;29.40;45.10;;;;;;5034272;28;20082;-78
2023/07/26 12:07:54;;;;;;;5.55;2.90;;;29.50;44.70;;;;;;5049075;28;20037;-79
2023/07/26 12:10:31;;;;;;;3.67;2.58;;;29.50;44.60;;;;;;5050632;28;20033;-80
2023/07/26 12:12:58;;;;;;;3.65;3.13;;;29.30;44.40;;;;;;5050706;28;20060;-79
2023/07/26 12:15:25;;;;;;;2.92;2.60;;;29.30;44.20;;;;;;5054302;28;20036;-80
2023/07/26 12:17:55;;;;;;;3.78;2.80;;;29.40;44.10;;;;;;5051163;28;20029;-79
2023/07/26 12:20:25;;;;;;;4.55;3.15;;;29.30;43.80;;;;;;5034227;28;20116;-78
2023/07/26 12:22:53;;;;;;;4.40;2.83;;;29.20;43.70;;;;;;5047795;28;20068;-78
2023/07/26 12:25:20;;;;;;;4.68;2.88;;;29.40;43.50;;;;;;5037520;28;20033;-78
2023/07/26 12:27:52;;;;;;;3.55;2.55;;;29.40;43.30;;;;;;5043024;28;20052;-79
2023/07/26 12:30:19;;;;;;;5.20;2.65;;;29.30;43.20;;;;;;5051773;28;20369;-79
2023/07/26 12:32:45;;;;;;;4.82;3.42;;;29.30;43.00;;;;;;5053680;28;20029;-79
2023/07/26 12:35:22;;;;;;;5.20;2.88;;;29.30;42.90;;;;;;5038683;28;20374;-79
2023/07/26 12:37:52;;;;;;;6.28;2.88;;;29.30;42.80;;;;;;5068854;28;20016;-80
2023/07/26 12:40:20;;;;;;;5.13;2.72;;;29.30;42.70;;;;;;5068631;28;20032;-79
2023/07/26 12:42:46;;;;;;;4.25;2.83;;;29.30;42.70;;;;;;5058071;28;20036;-81